createdAt,value
2019-03-01T00:00:30.144Z,12.30
2019-03-01T00:03:02.122Z,12.30
2019-03-01T00:05:53.075Z,12.30
2019-03-01T00:08:26.422Z,12.30
2019-03-01T00:11:14.754Z,12.30
2019-03-01T00:13:48.225Z,12.30
2019-03-01T00:16:27.743Z,12.30
2019-03-01T00:19:19.741Z,12.30
2019-03-01T00:22:05.585Z,12.30
2019-03-01T00:25:02.262Z,12.30
2019-03-01T00:27:56.725Z,12.20
2019-03-01T00:30:42.318Z,12.20
2019-03-01T00:33:27.893Z,12.10
2019-03-01T00:36:20.651Z,12.10
2019-03-01T00:39:05.074Z,12.00
2019-03-01T00:41:43.023Z,11.90
2019-03-01T00:44:41.975Z,11.80
2019-03-01T00:47:12.080Z,11.70
2019-03-01T00:49:43.655Z,11.60
2019-03-01T00:52:13.560Z,11.60
2019-03-01T00:54:44.026Z,11.60
2019-03-01T00:57:14.500Z,11.50
2019-03-01T00:59:45.461Z,11.50
2019-03-01T01:02:15.507Z,11.40
2019-03-01T01:04:46.109Z,11.30
2019-03-01T01:07:17.575Z,11.30
2019-03-01T01:09:49.243Z,11.30
2019-03-01T01:12:19.676Z,11.20
2019-03-01T01:14:50.065Z,11.10
2019-03-01T01:17:20.590Z,11.10
2019-03-01T01:19:52.034Z,11.00
2019-03-01T01:22:22.507Z,11.00
2019-03-01T01:24:53.942Z,11.00
2019-03-01T01:27:23.855Z,10.90
2019-03-01T01:29:54.829Z,10.80
2019-03-01T01:32:27.290Z,10.80
2019-03-01T01:34:57.840Z,10.70
2019-03-01T01:37:28.304Z,10.70
2019-03-01T01:40:00.007Z,10.70
2019-03-01T01:42:30.466Z,10.70
2019-03-01T01:45:00.344Z,10.70
2019-03-01T01:47:30.417Z,10.70
2019-03-01T01:50:01.969Z,10.60
2019-03-01T01:52:32.500Z,10.50
2019-03-01T01:55:02.257Z,10.50
2019-03-01T01:57:32.175Z,10.40
2019-03-01T02:00:03.153Z,10.40
2019-03-01T02:02:34.345Z,10.40
2019-03-01T02:05:05.603Z,10.30
2019-03-01T02:07:35.494Z,10.30
2019-03-01T02:10:08.506Z,10.30
2019-03-01T02:12:38.497Z,10.40
2019-03-01T02:15:12.628Z,10.30
2019-03-01T02:17:43.366Z,10.40
2019-03-01T02:20:14.744Z,10.40
2019-03-01T02:22:44.639Z,10.40
2019-03-01T02:25:15.081Z,10.40
2019-03-01T02:27:45.570Z,10.40
2019-03-01T02:30:19.361Z,10.40
2019-03-01T02:32:51.500Z,10.30
2019-03-01T02:35:21.975Z,10.20
2019-03-01T02:37:51.962Z,10.20
2019-03-01T02:40:23.865Z,10.00
2019-03-01T02:42:54.434Z,10.00
2019-03-01T02:45:24.948Z,10.00
2019-03-01T02:47:55.620Z,9.90
2019-03-01T02:50:26.523Z,9.90
2019-03-01T02:52:56.399Z,9.90
2019-03-01T02:55:27.280Z,9.80
2019-03-01T02:57:57.231Z,9.80
2019-03-01T03:00:29.441Z,9.80
2019-03-01T03:03:00.019Z,9.70
2019-03-01T03:05:29.868Z,9.70
2019-03-01T03:08:01.906Z,9.70
2019-03-01T03:10:32.682Z,9.70
2019-03-01T03:13:05.689Z,9.70
2019-03-01T03:15:40.068Z,9.70
2019-03-01T03:18:10.021Z,9.70
2019-03-01T03:20:40.861Z,9.80
2019-03-01T03:23:10.743Z,9.80
2019-03-01T03:25:41.149Z,9.80
2019-03-01T03:28:11.691Z,9.80
2019-03-01T03:30:43.170Z,9.80
2019-03-01T03:33:16.506Z,9.90
2019-03-01T03:35:46.369Z,9.90
2019-03-01T03:38:16.288Z,10.00
2019-03-01T03:40:47.798Z,10.00
2019-03-01T03:43:17.692Z,10.00
2019-03-01T03:45:48.177Z,10.00
2019-03-01T03:48:18.244Z,10.00
2019-03-01T03:50:48.112Z,10.00
2019-03-01T03:53:18.099Z,10.00
2019-03-01T03:55:48.460Z,10.00
2019-03-01T03:58:18.328Z,10.00
2019-03-01T04:00:48.091Z,10.00
2019-03-01T04:03:18.007Z,10.00
2019-03-01T04:05:47.865Z,10.00
2019-03-01T04:08:17.646Z,10.00
2019-03-01T04:10:48.108Z,10.00
2019-03-01T04:13:18.481Z,10.10
2019-03-01T04:15:48.536Z,10.10
2019-03-01T04:18:18.387Z,10.10
2019-03-01T04:20:48.262Z,10.10
2019-03-01T04:23:18.069Z,10.10
2019-03-01T04:25:47.905Z,10.00
2019-03-01T04:28:17.916Z,10.10
2019-03-01T04:30:48.364Z,9.80
2019-03-01T04:33:20.942Z,9.60
2019-03-01T04:35:50.887Z,9.70
2019-03-01T04:38:21.350Z,9.50
2019-03-01T04:40:51.318Z,9.30
2019-03-01T04:43:21.289Z,8.80
2019-03-01T04:45:51.240Z,8.40
2019-03-01T04:48:21.179Z,8.00
2019-03-01T04:50:51.042Z,7.70
2019-03-01T04:53:20.937Z,7.50
2019-03-01T04:55:50.912Z,7.20
2019-03-01T04:58:20.707Z,7.10
2019-03-01T05:00:50.661Z,6.90
2019-03-01T05:03:20.451Z,6.90
2019-03-01T05:05:50.310Z,6.90
2019-03-01T05:08:20.175Z,6.90
2019-03-01T05:10:50.146Z,7.00
2019-03-01T05:13:19.916Z,7.10
2019-03-01T05:15:49.751Z,7.10
2019-03-01T05:18:19.578Z,7.00
2019-03-01T05:20:49.410Z,7.10
2019-03-01T05:23:19.285Z,7.10
2019-03-01T05:25:49.192Z,7.10
2019-03-01T05:28:19.180Z,7.20
2019-03-01T05:30:49.050Z,7.20
2019-03-01T05:33:18.931Z,7.30
2019-03-01T05:35:48.805Z,7.40
2019-03-01T05:38:21.745Z,7.40
2019-03-01T05:40:50.089Z,7.30
2019-03-01T05:43:19.875Z,7.30
2019-03-01T05:45:49.743Z,7.30
2019-03-01T05:48:19.630Z,7.30
2019-03-01T05:50:49.567Z,7.30
2019-03-01T05:53:19.524Z,7.30
2019-03-01T05:55:49.494Z,7.40
2019-03-01T05:58:33.505Z,7.30
2019-03-01T06:01:09.757Z,7.40
2019-03-01T06:03:57.850Z,7.40
2019-03-01T06:06:48.987Z,7.50
2019-03-01T06:09:40.723Z,7.50
2019-03-01T06:12:37.046Z,7.60
2019-03-01T06:15:35.258Z,7.80
2019-03-01T06:18:16.842Z,7.80
2019-03-01T06:21:04.697Z,8.00
2019-03-01T06:24:07.453Z,8.30
2019-03-01T06:27:07.657Z,8.60
2019-03-01T06:29:46.538Z,9.00
2019-03-01T06:32:42.162Z,9.50
2019-03-01T06:35:20.718Z,9.80
2019-03-01T06:38:06.574Z,10.30
2019-03-01T06:40:57.601Z,10.80
2019-03-01T06:43:40.220Z,11.20
2019-03-01T06:46:16.800Z,11.90
2019-03-01T06:48:55.947Z,12.50
2019-03-01T06:51:29.089Z,13.00
2019-03-01T06:54:00.248Z,13.60
2019-03-01T06:56:30.596Z,14.00
2019-03-01T06:59:02.159Z,14.70
2019-03-01T07:01:34.003Z,15.70
2019-03-01T07:04:06.101Z,16.30
2019-03-01T07:06:37.560Z,16.30
2019-03-01T07:09:09.157Z,16.00
2019-03-01T07:11:39.624Z,16.20
2019-03-01T07:14:10.076Z,16.40
2019-03-01T07:16:40.454Z,17.00
2019-03-01T07:19:11.992Z,18.10
2019-03-01T07:21:42.383Z,18.10
2019-03-01T07:24:13.046Z,18.90
2019-03-01T07:26:44.993Z,19.70
2019-03-01T07:29:16.688Z,19.70
2019-03-01T07:31:47.028Z,19.80
2019-03-01T07:34:17.490Z,20.00
2019-03-01T07:36:47.930Z,19.70
2019-03-01T07:39:23.409Z,19.50
2019-03-01T07:41:53.871Z,20.30
2019-03-01T07:44:24.510Z,21.30
2019-03-01T07:46:54.879Z,21.80
2019-03-01T07:49:26.538Z,21.60
2019-03-01T07:51:56.885Z,21.60
2019-03-01T07:54:27.435Z,21.70
2019-03-01T07:56:57.802Z,21.80
2019-03-01T07:59:31.808Z,21.80
2019-03-01T08:02:04.129Z,22.30
2019-03-01T08:04:33.478Z,22.60
2019-03-01T08:07:03.846Z,23.00
2019-03-01T08:09:36.283Z,23.10
2019-03-01T08:12:08.110Z,23.80
2019-03-01T08:14:39.701Z,24.20
2019-03-01T08:17:10.087Z,24.80
2019-03-01T08:19:41.675Z,26.10
2019-03-01T08:22:12.047Z,26.30
2019-03-01T08:24:42.852Z,27.20
2019-03-01T08:27:16.128Z,27.50
2019-03-01T08:29:47.680Z,27.40
2019-03-01T08:32:18.139Z,28.20
2019-03-01T08:34:49.811Z,27.70
2019-03-01T08:37:20.661Z,27.40
2019-03-01T08:39:55.731Z,27.90
2019-03-01T08:42:26.090Z,27.90
2019-03-01T08:44:58.282Z,27.60
2019-03-01T08:47:28.256Z,28.00
2019-03-01T08:49:59.894Z,28.60
2019-03-01T08:52:30.337Z,29.10
2019-03-01T08:55:03.913Z,29.30
2019-03-01T08:57:43.760Z,29.90
2019-03-01T09:00:23.113Z,29.70
2019-03-01T09:02:56.006Z,29.70
2019-03-01T09:05:26.160Z,30.00
2019-03-01T09:07:56.522Z,28.50
2019-03-01T09:10:29.138Z,27.00
2019-03-01T09:13:01.164Z,25.20
2019-03-01T09:15:31.651Z,23.60
2019-03-01T09:18:02.026Z,22.40
2019-03-01T09:20:38.406Z,21.40
2019-03-01T09:23:20.655Z,20.40
2019-03-01T09:25:37.716Z,19.50
2019-03-01T09:28:08.057Z,18.90
2019-03-01T09:30:40.312Z,18.60
2019-03-01T09:33:11.555Z,18.40
2019-03-01T09:35:58.516Z,18.10
2019-03-01T09:38:28.888Z,18.00
2019-03-01T09:41:04.643Z,18.20
2019-03-01T09:43:34.982Z,18.10
2019-03-01T09:46:05.435Z,18.00
2019-03-01T09:48:35.879Z,17.90
2019-03-01T09:51:07.283Z,17.40
2019-03-01T09:53:38.401Z,17.40
2019-03-01T09:56:09.754Z,17.80
2019-03-01T09:58:40.971Z,17.60
2019-03-01T10:01:14.238Z,17.70
2019-03-01T10:03:44.599Z,17.60
2019-03-01T10:06:15.181Z,17.50
2019-03-01T10:08:46.546Z,17.20
2019-03-01T10:11:17.148Z,17.10
2019-03-01T10:13:47.799Z,17.00
2019-03-01T10:16:18.492Z,16.80
2019-03-01T10:18:49.873Z,16.90
2019-03-01T10:21:20.383Z,16.90
2019-03-01T10:23:50.890Z,16.90
2019-03-01T10:26:21.515Z,17.10
2019-03-01T10:28:58.731Z,17.10
2019-03-01T10:31:31.166Z,17.00
2019-03-01T10:34:01.613Z,17.00
2019-03-01T10:36:32.117Z,17.00
2019-03-01T10:39:03.806Z,16.80
2019-03-01T10:41:36.708Z,16.80
2019-03-01T10:44:07.271Z,16.80
2019-03-01T10:46:37.763Z,16.80
2019-03-01T10:49:09.288Z,16.70
2019-03-01T10:51:39.812Z,16.70
2019-03-01T10:54:10.218Z,16.70
2019-03-01T10:56:41.865Z,16.80
2019-03-01T10:59:13.348Z,16.80
2019-03-01T11:01:43.859Z,16.90
2019-03-01T11:04:14.260Z,16.90
2019-03-01T11:06:45.792Z,16.90
2019-03-01T11:09:17.222Z,16.90
2019-03-01T11:11:47.728Z,16.70
2019-03-01T11:14:18.082Z,16.80
2019-03-01T11:16:48.551Z,16.70
2019-03-01T11:19:20.008Z,16.80
2019-03-01T11:21:50.557Z,16.90
2019-03-01T11:24:21.006Z,16.90
2019-03-01T11:26:51.727Z,16.80
2019-03-01T11:29:22.353Z,16.90
2019-03-01T11:31:52.871Z,16.80
2019-03-01T11:34:23.352Z,16.80
2019-03-01T11:36:54.907Z,16.70
2019-03-01T11:39:25.611Z,16.80
2019-03-01T11:41:57.032Z,16.70
2019-03-01T11:44:27.746Z,16.80
2019-03-01T11:46:58.351Z,16.70
2019-03-01T11:49:29.373Z,16.60
2019-03-01T11:52:00.039Z,16.60
2019-03-01T11:54:30.616Z,16.50
2019-03-01T11:57:01.139Z,16.40
2019-03-01T11:59:32.602Z,16.40
2019-03-01T12:02:03.086Z,16.40
2019-03-01T12:04:34.538Z,16.40
2019-03-01T12:07:06.431Z,16.40
2019-03-01T12:09:38.361Z,16.30
2019-03-01T12:12:08.827Z,16.20
2019-03-01T12:14:39.286Z,16.30
2019-03-01T12:17:09.990Z,16.10
2019-03-01T12:19:40.699Z,16.10
2019-03-01T12:22:17.109Z,16.00
2019-03-01T12:24:43.267Z,16.00
2019-03-01T12:27:16.737Z,16.00
2019-03-01T12:29:46.501Z,16.00
2019-03-01T12:32:17.036Z,16.00
2019-03-01T12:34:47.403Z,16.30
2019-03-01T12:37:17.998Z,16.30
2019-03-01T12:39:48.505Z,16.30
2019-03-01T12:42:19.945Z,16.10
2019-03-01T12:44:52.221Z,16.00
2019-03-01T12:47:22.628Z,16.00
2019-03-01T12:49:53.311Z,16.10
2019-03-01T12:52:23.871Z,16.00
2019-03-01T12:54:54.279Z,15.90
2019-03-01T12:57:24.917Z,15.90
2019-03-01T12:59:57.337Z,15.80
2019-03-01T13:02:27.815Z,15.90
2019-03-01T13:04:58.167Z,15.90
2019-03-01T13:07:28.756Z,15.80
2019-03-01T13:10:03.238Z,15.60
2019-03-01T13:12:31.809Z,15.60
2019-03-01T13:15:02.390Z,15.50
2019-03-01T13:17:33.785Z,15.50
2019-03-01T13:20:08.488Z,15.30
2019-03-01T13:22:40.366Z,15.40
2019-03-01T13:25:11.577Z,15.40
2019-03-01T13:27:42.284Z,15.50
2019-03-01T13:30:17.835Z,15.60
2019-03-01T13:32:48.522Z,15.60
2019-03-01T13:35:22.380Z,15.60
2019-03-01T13:37:55.474Z,15.50
2019-03-01T13:40:25.429Z,15.40
2019-03-01T13:42:56.913Z,15.40
2019-03-01T13:45:27.613Z,15.40
2019-03-01T13:47:58.321Z,15.40
2019-03-01T13:50:29.746Z,15.30
2019-03-01T13:53:00.256Z,15.20
2019-03-01T13:55:30.830Z,15.10
2019-03-01T13:58:01.407Z,15.10
2019-03-01T14:00:32.916Z,15.00
2019-03-01T14:03:03.506Z,14.90
2019-03-01T14:05:33.987Z,14.90
2019-03-01T14:08:08.953Z,15.00
2019-03-01T14:10:38.587Z,14.90
2019-03-01T14:13:11.209Z,14.90
2019-03-01T14:15:40.989Z,14.90
2019-03-01T14:18:11.459Z,14.80
2019-03-01T14:20:42.884Z,14.60
2019-03-01T14:23:13.433Z,14.60
2019-03-01T14:25:43.902Z,14.50
2019-03-01T14:28:14.442Z,14.50
2019-03-01T14:30:45.935Z,14.40
2019-03-01T14:33:16.531Z,14.50
2019-03-01T14:35:46.902Z,14.40
2019-03-01T14:38:17.500Z,14.40
2019-03-01T14:40:48.901Z,14.50
2019-03-01T14:43:23.829Z,14.50
2019-03-01T14:45:53.994Z,14.50
2019-03-01T14:48:24.466Z,14.40
2019-03-01T14:50:55.259Z,14.30
2019-03-01T14:53:25.764Z,14.30
2019-03-01T14:56:02.004Z,14.30
2019-03-01T14:58:41.418Z,14.30
2019-03-01T15:01:14.891Z,14.40
2019-03-01T15:03:45.450Z,14.40
2019-03-01T15:06:19.160Z,14.40
2019-03-01T15:08:50.315Z,14.40
2019-03-01T15:11:20.864Z,14.30
2019-03-01T15:13:50.793Z,14.30
2019-03-01T15:16:21.409Z,14.30
2019-03-01T15:18:53.063Z,14.30
2019-03-01T15:21:23.666Z,14.40
2019-03-01T15:23:56.286Z,14.40
2019-03-01T15:26:27.788Z,14.40
2019-03-01T15:28:59.619Z,14.30
2019-03-01T15:31:30.095Z,14.40
2019-03-01T15:34:00.665Z,14.40
2019-03-01T15:36:31.033Z,14.40
2019-03-01T15:39:01.613Z,14.40
2019-03-01T15:41:33.526Z,14.40
2019-03-01T15:44:04.855Z,14.40
2019-03-01T15:46:35.326Z,14.40
2019-03-01T15:49:06.868Z,14.40
2019-03-01T15:51:38.151Z,14.40
2019-03-01T15:54:09.635Z,14.30
2019-03-01T15:56:42.925Z,14.40
2019-03-01T15:59:14.216Z,14.30
2019-03-01T16:01:47.190Z,14.30
2019-03-01T16:04:18.103Z,14.30
2019-03-01T16:06:48.579Z,14.30
2019-03-01T16:09:21.821Z,14.20
2019-03-01T16:11:53.218Z,14.20
2019-03-01T16:14:25.030Z,14.20
2019-03-01T16:16:55.680Z,14.10
2019-03-01T16:19:26.262Z,14.10
2019-03-01T16:21:56.717Z,14.10
2019-03-01T16:24:27.194Z,14.00
2019-03-01T16:26:57.571Z,14.00
2019-03-01T16:29:28.343Z,13.90
2019-03-01T16:31:58.697Z,13.90
2019-03-01T16:34:29.162Z,13.90
2019-03-01T16:37:00.065Z,13.80
2019-03-01T16:39:32.602Z,13.90
2019-03-01T16:42:03.103Z,13.80
2019-03-01T16:44:34.573Z,13.80
2019-03-01T16:47:06.710Z,13.70
2019-03-01T16:49:38.289Z,13.60
2019-03-01T16:52:08.269Z,13.50
2019-03-01T16:54:39.736Z,13.50
2019-03-01T16:57:11.835Z,13.40
2019-03-01T16:59:43.731Z,13.40
2019-03-01T17:02:13.579Z,13.40
2019-03-01T17:04:43.556Z,13.30
2019-03-01T17:07:14.063Z,13.20
2019-03-01T17:09:47.347Z,13.20
2019-03-01T17:12:17.530Z,13.20
2019-03-01T17:14:49.176Z,13.20
2019-03-01T17:17:19.660Z,13.10
2019-03-01T17:19:51.625Z,13.10
2019-03-01T17:22:23.197Z,13.00
2019-03-01T17:24:54.312Z,12.90
2019-03-01T17:27:24.826Z,12.90
2019-03-01T17:29:55.480Z,12.80
2019-03-01T17:32:25.900Z,12.80
2019-03-01T17:34:56.658Z,12.70
2019-03-01T17:37:28.922Z,12.70
2019-03-01T17:40:00.802Z,12.70
2019-03-01T17:42:31.389Z,12.60
2019-03-01T17:45:01.997Z,12.60
2019-03-01T17:47:32.901Z,12.60
2019-03-01T17:50:08.769Z,12.50
2019-03-01T17:52:38.292Z,12.50
2019-03-01T17:55:16.906Z,12.40
2019-03-01T17:57:47.547Z,12.40
2019-03-01T18:00:45.018Z,12.40
2019-03-01T18:03:15.807Z,12.40
2019-03-01T18:05:46.630Z,12.40
2019-03-01T18:08:17.450Z,12.40
2019-03-01T18:10:50.552Z,12.40
2019-03-01T18:13:21.332Z,12.40
2019-03-01T18:15:51.671Z,12.40
2019-03-01T18:18:22.512Z,12.40
2019-03-01T18:20:53.437Z,12.40
2019-03-01T18:23:24.232Z,12.50
2019-03-01T18:25:55.194Z,12.50
2019-03-01T18:28:28.356Z,12.50
2019-03-01T18:30:58.655Z,12.50
2019-03-01T18:33:29.916Z,12.50
2019-03-01T18:36:00.384Z,12.50
2019-03-01T18:38:32.278Z,12.50
2019-03-01T18:41:02.928Z,12.50
2019-03-01T18:43:33.979Z,12.40
2019-03-01T18:46:05.563Z,12.20
2019-03-01T18:48:36.705Z,12.10
2019-03-01T18:51:08.470Z,12.10
2019-03-01T18:53:38.912Z,12.00
2019-03-01T18:56:10.025Z,11.90
2019-03-01T18:58:40.475Z,11.90
2019-03-01T19:01:12.038Z,12.00
2019-03-01T19:03:43.030Z,11.90
2019-03-01T19:06:16.277Z,11.80
2019-03-01T19:08:46.417Z,11.80
2019-03-01T19:11:16.810Z,11.80
2019-03-01T19:13:47.614Z,11.80
2019-03-01T19:16:18.616Z,11.80
2019-03-01T19:18:51.280Z,11.80
2019-03-01T19:21:23.145Z,11.70
2019-03-01T19:23:54.341Z,11.70
2019-03-01T19:26:24.838Z,11.70
2019-03-01T19:28:59.039Z,11.70
2019-03-01T19:31:28.776Z,11.70
2019-03-01T19:33:59.266Z,11.70
2019-03-01T19:36:30.291Z,11.60
2019-03-01T19:39:02.427Z,11.60
2019-03-01T19:41:34.404Z,11.60
2019-03-01T19:44:05.364Z,11.60
2019-03-01T19:46:37.179Z,11.60
2019-03-01T19:49:09.430Z,11.60
2019-03-01T19:51:40.857Z,11.60
2019-03-01T19:54:11.302Z,11.50
2019-03-01T19:56:42.337Z,11.40
2019-03-01T19:59:14.373Z,11.40
2019-03-01T20:01:45.511Z,11.40
2019-03-01T20:04:17.757Z,11.20
2019-03-01T20:06:49.564Z,11.10
2019-03-01T20:09:21.617Z,11.10
2019-03-01T20:11:52.670Z,11.00
2019-03-01T20:14:22.915Z,11.00
2019-03-01T20:16:54.899Z,11.00
2019-03-01T20:19:26.965Z,11.00
2019-03-01T20:21:57.327Z,11.10
2019-03-01T20:24:28.136Z,11.00
2019-03-01T20:26:59.962Z,11.00
2019-03-01T20:29:31.961Z,11.00
2019-03-01T20:32:04.336Z,10.90
2019-03-01T20:34:34.885Z,10.90
2019-03-01T20:37:06.888Z,10.90
2019-03-01T20:39:38.791Z,10.90
2019-03-01T20:42:09.832Z,10.90
2019-03-01T20:44:41.057Z,10.90
2019-03-01T20:47:15.512Z,10.80
2019-03-01T20:49:47.052Z,10.70
2019-03-01T20:52:18.020Z,10.70
2019-03-01T20:54:48.355Z,10.60
2019-03-01T20:57:19.387Z,10.50
2019-03-01T20:59:51.599Z,10.50
2019-03-01T21:02:22.088Z,10.50
2019-03-01T21:04:53.656Z,10.50
2019-03-01T21:07:24.908Z,10.50
2019-03-01T21:09:56.303Z,10.40
2019-03-01T21:12:26.386Z,10.50
2019-03-01T21:14:58.750Z,10.50
2019-03-01T21:17:28.603Z,10.40
2019-03-01T21:20:00.057Z,10.40
2019-03-01T21:22:30.683Z,10.30
2019-03-01T21:25:03.131Z,10.30
2019-03-01T21:27:33.712Z,10.30
2019-03-01T21:30:10.101Z,10.30
2019-03-01T21:32:40.504Z,10.30
2019-03-01T21:35:13.367Z,10.20
2019-03-01T21:37:42.650Z,10.20
2019-03-01T21:40:14.820Z,10.10
2019-03-01T21:42:44.834Z,10.10
2019-03-01T21:45:21.599Z,10.10
2019-03-01T21:47:51.262Z,10.10
2019-03-01T21:50:22.083Z,10.10
2019-03-01T21:52:52.062Z,10.10
2019-03-01T21:55:25.009Z,10.00
2019-03-01T21:57:56.014Z,10.00
2019-03-01T22:00:31.349Z,9.90
2019-03-01T22:03:01.212Z,9.90
2019-03-01T22:05:31.003Z,9.90
2019-03-01T22:08:00.908Z,9.90
2019-03-01T22:10:35.669Z,9.80
2019-03-01T22:13:03.565Z,9.90
2019-03-01T22:15:33.513Z,9.90
2019-03-01T22:18:03.620Z,9.90
2019-03-01T22:20:34.875Z,9.90
2019-03-01T22:23:05.423Z,9.80
2019-03-01T22:25:37.973Z,9.80
2019-03-01T22:28:08.078Z,9.70
2019-03-01T22:30:39.704Z,9.70
2019-03-01T22:33:09.704Z,9.70
2019-03-01T22:35:40.538Z,9.70
2019-03-01T22:38:11.058Z,9.70
2019-03-01T22:40:42.111Z,9.70
2019-03-01T22:43:12.919Z,9.70
2019-03-01T22:45:45.479Z,9.60
2019-03-01T22:48:14.341Z,9.70
2019-03-01T22:50:46.500Z,9.60
2019-03-01T22:53:16.380Z,9.60
2019-03-01T22:55:46.866Z,9.60
2019-03-01T22:58:16.751Z,9.60
2019-03-01T23:01:03.792Z,9.50
2019-03-01T23:03:34.833Z,9.40
2019-03-01T23:06:04.906Z,9.40
2019-03-01T23:08:35.527Z,9.40
2019-03-01T23:11:06.500Z,9.30
2019-03-01T23:13:36.421Z,9.30
2019-03-01T23:16:06.385Z,9.30
2019-03-01T23:18:37.627Z,9.20
2019-03-01T23:21:07.846Z,9.20
2019-03-01T23:23:37.762Z,9.20
2019-03-01T23:26:07.664Z,9.20
2019-03-01T23:28:40.776Z,9.10
2019-03-01T23:31:09.156Z,9.00
2019-03-01T23:33:39.210Z,9.00
2019-03-01T23:36:09.088Z,8.90
2019-03-01T23:38:38.951Z,8.90
2019-03-01T23:41:11.403Z,8.90
2019-03-01T23:43:40.495Z,8.80
2019-03-01T23:46:10.367Z,8.80
2019-03-01T23:48:40.175Z,8.80
2019-03-01T23:51:10.501Z,8.80
2019-03-01T23:53:41.480Z,8.80
2019-03-01T23:56:11.241Z,8.80
2019-03-01T23:58:41.108Z,8.80
